Time;durP1;ratioP1;P1;durP2;ratioP2;P2;SDS_P1;SDS_P2;PMS_P1;PMS_P2;Temp;Humidity;BMP_temperature;BMP_pressure;BME280_temperature;BME280_humidity;BME280_pressure;Samples;Min_cycle;Max_cycle;Signal;HPM_P1;HPM_P2
2024/04/19 00:00:47;;;;;;;1.97;0.67;;;;;;;;;;5373001;26;85798;-45
2024/04/19 00:03:12;;;;;;;3.77;0.57;;;;;;;;;;5376127;26;87532;-42
2024/04/19 00:05:40;;;;;;;4.20;0.50;;;;;;;;;;5375828;26;85203;-42
2024/04/19 00:08:05;;;;;;;0.55;0.40;;;;;;;;;;5373028;25;85665;-42
2024/04/19 00:10:33;;;;;;;1.40;0.80;;;;;;;;;;5385689;26;85984;-46
2024/04/19 00:12:58;;;;;;;0.87;0.47;;;;;;;;;;5372856;26;85893;-42
2024/04/19 00:15:24;;;;;;;0.13;0.13;;;;;;;;;;5379634;26;86817;-41
2024/04/19 00:17:49;;;;;;;0.70;0.47;;;;;;;;;;5426556;25;85502;-42
2024/04/19 00:20:14;;;;;;;1.07;0.47;;;;;;;;;;5371674;26;87300;-44
2024/04/19 00:22:39;;;;;;;1.00;0.33;;;;;;;;;;5382131;26;85872;-44
2024/04/19 00:25:05;;;;;;;3.90;0.65;;;;;;;;;;5382910;25;86086;-43
2024/04/19 00:27:32;;;;;;;0.80;0.40;;;;;;;;;;5385935;26;86245;-42
2024/04/19 00:29:57;;;;;;;0.73;0.40;;;;;;;;;;5378362;26;85453;-42
2024/04/19 00:32:22;;;;;;;0.40;0.27;;;;;;;;;;5380183;25;84727;-45
2024/04/19 00:34:47;;;;;;;2.40;0.40;;;;;;;;;;5376490;26;85875;-43
2024/04/19 00:37:13;;;;;;;1.93;0.53;;;;;;;;;;5367727;26;85970;-42
2024/04/19 00:39:38;;;;;;;0.60;0.23;;;;;;;;;;5370605;26;86410;-42
2024/04/19 00:42:03;;;;;;;0.33;0.33;;;;;;;;;;5376013;26;86607;-45
2024/04/19 00:44:30;;;;;;;0.50;0.30;;;;;;;;;;5373453;26;85244;-43
2024/04/19 00:46:55;;;;;;;2.08;0.30;;;;;;;;;;5377881;26;86137;-42
2024/04/19 00:49:21;;;;;;;0.73;0.43;;;;;;;;;;5371713;26;86017;-46
2024/04/19 00:51:46;;;;;;;0.53;0.50;;;;;;;;;;5372609;26;86426;-42
2024/04/19 00:54:11;;;;;;;0.60;0.30;;;;;;;;;;5381961;26;85475;-45
2024/04/19 00:56:37;;;;;;;0.53;0.20;;;;;;;;;;5386414;26;84584;-45
2024/04/19 00:59:03;;;;;;;0.40;0.20;;;;;;;;;;5376845;26;85053;-43
2024/04/19 01:01:28;;;;;;;1.33;0.63;;;;;;;;;;5379098;26;87193;-45
2024/04/19 01:03:54;;;;;;;0.70;0.50;;;;;;;;;;5374924;26;86051;-43
2024/04/19 01:06:19;;;;;;;0.63;0.30;;;;;;;;;;5371479;26;85652;-43
2024/04/19 01:08:45;;;;;;;0.60;0.20;;;;;;;;;;5372218;26;85889;-41
2024/04/19 01:11:10;;;;;;;0.77;0.30;;;;;;;;;;5378630;26;86596;-45
2024/04/19 01:13:36;;;;;;;0.80;0.47;;;;;;;;;;5374055;26;85450;-41
2024/04/19 01:16:01;;;;;;;0.93;0.40;;;;;;;;;;5374602;26;85229;-44
2024/04/19 01:18:26;;;;;;;1.20;0.50;;;;;;;;;;5368091;26;85867;-44
2024/04/19 01:20:52;;;;;;;0.80;0.30;;;;;;;;;;5382671;25;85073;-43
2024/04/19 01:23:18;;;;;;;0.40;0.40;;;;;;;;;;5377858;26;85295;-41
2024/04/19 01:25:44;;;;;;;0.50;0.30;;;;;;;;;;5373798;26;85669;-43
2024/04/19 01:28:10;;;;;;;1.10;0.38;;;;;;;;;;5378688;26;86739;-42
2024/04/19 01:30:37;;;;;;;0.90;0.63;;;;;;;;;;5376182;26;85722;-41
2024/04/19 01:33:03;;;;;;;2.80;0.47;;;;;;;;;;5371056;26;85887;-42
2024/04/19 01:35:28;;;;;;;0.28;0.25;;;;;;;;;;5379345;26;85079;-46
2024/04/19 01:37:53;;;;;;;0.70;0.30;;;;;;;;;;5379733;25;85475;-46
2024/04/19 01:40:19;;;;;;;0.83;0.30;;;;;;;;;;5380100;26;85247;-42
2024/04/19 01:42:44;;;;;;;0.40;0.23;;;;;;;;;;5375180;26;86131;-45
2024/04/19 01:45:09;;;;;;;1.20;0.40;;;;;;;;;;5384452;26;85578;-44
2024/04/19 01:47:35;;;;;;;0.53;0.40;;;;;;;;;;5380147;25;85203;-42
2024/04/19 01:50:00;;;;;;;1.00;0.40;;;;;;;;;;5385360;26;86117;-43
2024/04/19 01:52:25;;;;;;;0.87;0.37;;;;;;;;;;5390060;26;87046;-42
2024/04/19 01:54:51;;;;;;;0.90;0.40;;;;;;;;;;5378508;26;85363;-44
2024/04/19 01:57:16;;;;;;;0.50;0.37;;;;;;;;;;5381984;25;86385;-42
2024/04/19 01:59:41;;;;;;;0.33;0.20;;;;;;;;;;5379811;26;86266;-43
2024/04/19 02:02:06;;;;;;;1.30;0.30;;;;;;;;;;5378619;25;85040;-42
2024/04/19 02:04:32;;;;;;;1.97;0.30;;;;;;;;;;5379339;26;85700;-42
2024/04/19 02:06:58;;;;;;;0.13;0.13;;;;;;;;;;5383733;26;85784;-43
2024/04/19 02:09:23;;;;;;;0.47;0.27;;;;;;;;;;5383680;25;84480;-43
2024/04/19 02:11:48;;;;;;;0.50;0.30;;;;;;;;;;5382778;26;86542;-42
2024/04/19 02:14:14;;;;;;;0.80;0.30;;;;;;;;;;5381048;25;85700;-41
2024/04/19 02:16:39;;;;;;;0.15;0.15;;;;;;;;;;5379974;26;86029;-43
2024/04/19 02:19:04;;;;;;;0.30;0.30;;;;;;;;;;5374483;26;86924;-41
2024/04/19 02:21:29;;;;;;;0.17;0.17;;;;;;;;;;5375063;26;85933;-43
2024/04/19 02:23:55;;;;;;;1.10;0.20;;;;;;;;;;5383522;25;85986;-44
2024/04/19 02:26:20;;;;;;;0.40;0.30;;;;;;;;;;5379850;26;85252;-43
2024/04/19 02:31:29;;;;;;;1.10;0.40;;;;;;;;;;5382559;26;85373;-42
2024/04/19 02:33:54;;;;;;;2.27;0.40;;;;;;;;;;5385453;26;87081;-44
2024/04/19 02:36:20;;;;;;;0.40;0.33;;;;;;;;;;5373735;26;85594;-43
2024/04/19 02:38:45;;;;;;;0.90;0.40;;;;;;;;;;5381359;26;88722;-44
2024/04/19 02:41:10;;;;;;;0.77;0.30;;;;;;;;;;5369525;25;86664;-41
2024/04/19 02:43:35;;;;;;;0.30;0.20;;;;;;;;;;5367879;26;86798;-44
2024/04/19 02:46:03;;;;;;;0.73;0.50;;;;;;;;;;5385707;26;85312;-44
2024/04/19 02:48:28;;;;;;;0.20;0.20;;;;;;;;;;5384386;25;85240;-44
2024/04/19 02:50:53;;;;;;;0.10;0.10;;;;;;;;;;5372500;26;86651;-42
2024/04/19 02:53:18;;;;;;;0.80;0.43;;;;;;;;;;5374705;26;86193;-42
2024/04/19 02:55:44;;;;;;;0.60;0.30;;;;;;;;;;5381169;26;85402;-41
2024/04/19 02:58:09;;;;;;;1.07;0.37;;;;;;;;;;5373635;25;84473;-43
2024/04/19 03:00:34;;;;;;;1.20;0.30;;;;;;;;;;5375772;26;85836;-41
2024/04/19 03:03:00;;;;;;;0.40;0.23;;;;;;;;;;5382277;26;85147;-42
2024/04/19 03:05:25;;;;;;;0.50;0.40;;;;;;;;;;5370950;26;86840;-43
2024/04/19 03:07:50;;;;;;;0.60;0.30;;;;;;;;;;5367814;26;85887;-44
2024/04/19 03:10:15;;;;;;;0.30;0.30;;;;;;;;;;5385471;25;86330;-45
2024/04/19 03:12:41;;;;;;;0.57;0.20;;;;;;;;;;5378174;26;88222;-42
2024/04/19 03:15:06;;;;;;;0.30;0.30;;;;;;;;;;5385880;26;85673;-44
2024/04/19 03:17:32;;;;;;;1.48;0.30;;;;;;;;;;5376427;26;86015;-41
2024/04/19 03:19:57;;;;;;;0.77;0.38;;;;;;;;;;5374133;25;85570;-42
2024/04/19 03:22:23;;;;;;;1.10;0.30;;;;;;;;;;5375619;26;85461;-43
2024/04/19 03:24:48;;;;;;;0.60;0.30;;;;;;;;;;5368368;26;86353;-45
2024/04/19 03:27:13;;;;;;;0.20;0.10;;;;;;;;;;5374559;26;85175;-46
2024/04/19 03:29:38;;;;;;;0.17;0.17;;;;;;;;;;5367908;26;87121;-41
2024/04/19 03:32:04;;;;;;;0.50;0.30;;;;;;;;;;5375429;26;85437;-43
2024/04/19 03:34:29;;;;;;;2.90;0.30;;;;;;;;;;5373187;26;85278;-42
2024/04/19 03:36:54;;;;;;;0.17;0.17;;;;;;;;;;5379884;26;86735;-42
2024/04/19 03:39:19;;;;;;;1.20;0.40;;;;;;;;;;5381803;26;85594;-44
2024/04/19 03:41:46;;;;;;;1.20;0.37;;;;;;;;;;5369920;26;87066;-44
2024/04/19 03:46:55;;;;;;;0.60;0.25;;;;;;;;;;5378885;26;85115;-42
2024/04/19 03:49:22;;;;;;;0.57;0.30;;;;;;;;;;5376123;25;85659;-44
2024/04/19 03:51:48;;;;;;;0.22;0.22;;;;;;;;;;5371661;26;87485;-41
2024/04/19 03:54:13;;;;;;;0.20;0.20;;;;;;;;;;5379226;26;86847;-44
2024/04/19 03:56:38;;;;;;;0.20;0.20;;;;;;;;;;5375218;26;86968;-45
2024/04/19 03:59:03;;;;;;;0.40;0.23;;;;;;;;;;5375775;26;86671;-43
2024/04/19 04:01:29;;;;;;;0.30;0.20;;;;;;;;;;5388339;26;85445;-45
2024/04/19 04:03:54;;;;;;;0.90;0.47;;;;;;;;;;5375588;26;86105;-43
2024/04/19 04:06:20;;;;;;;1.00;0.60;;;;;;;;;;5368565;26;85256;-43
2024/04/19 04:08:45;;;;;;;0.20;0.20;;;;;;;;;;5381926;26;87273;-42
2024/04/19 04:11:12;;;;;;;0.80;0.20;;;;;;;;;;5370286;26;85062;-41
2024/04/19 04:13:38;;;;;;;0.20;0.10;;;;;;;;;;5373119;26;86041;-42
2024/04/19 04:16:04;;;;;;;0.77;0.23;;;;;;;;;;5381857;26;86562;-41
2024/04/19 04:18:29;;;;;;;0.20;0.20;;;;;;;;;;5377623;26;88423;-45
2024/04/19 04:20:54;;;;;;;0.83;0.27;;;;;;;;;;5376523;25;86022;-43
2024/04/19 04:23:19;;;;;;;0.60;0.20;;;;;;;;;;5373503;26;85479;-44
2024/04/19 04:25:45;;;;;;;2.03;0.53;;;;;;;;;;5382012;26;85620;-42
2024/04/19 04:28:10;;;;;;;0.40;0.20;;;;;;;;;;5372644;26;86400;-44
2024/04/19 04:30:37;;;;;;;0.40;0.30;;;;;;;;;;5374728;26;85274;-43
2024/04/19 04:33:02;;;;;;;0.27;0.20;;;;;;;;;;5380323;26;85386;-44
2024/04/19 04:35:27;;;;;;;0.30;0.27;;;;;;;;;;5375568;26;85810;-47
2024/04/19 04:37:53;;;;;;;0.50;0.33;;;;;;;;;;5366990;26;85476;-42
2024/04/19 04:40:18;;;;;;;0.80;0.23;;;;;;;;;;5367426;26;85878;-45
2024/04/19 04:42:43;;;;;;;3.00;0.30;;;;;;;;;;5373357;26;86045;-44
2024/04/19 04:45:09;;;;;;;0.37;0.20;;;;;;;;;;5379974;26;86668;-43
2024/04/19 04:47:34;;;;;;;0.10;0.10;;;;;;;;;;5379588;26;85765;-47
2024/04/19 04:50:00;;;;;;;6.43;0.90;;;;;;;;;;5381565;25;85634;-46
2024/04/19 04:52:27;;;;;;;0.33;0.30;;;;;;;;;;5375399;26;86787;-46
2024/04/19 04:54:52;;;;;;;1.90;0.40;;;;;;;;;;5377550;26;86678;-46
2024/04/19 04:57:17;;;;;;;2.23;0.70;;;;;;;;;;5368503;26;85763;-44
2024/04/19 04:59:42;;;;;;;0.60;0.20;;;;;;;;;;5363937;25;85419;-45
2024/04/19 05:02:08;;;;;;;0.90;0.50;;;;;;;;;;5388783;26;85579;-43
2024/04/19 05:04:33;;;;;;;0.40;0.20;;;;;;;;;;5384843;26;85999;-45
2024/04/19 05:06:58;;;;;;;1.03;0.40;;;;;;;;;;5387391;26;87141;-44
2024/04/19 05:09:23;;;;;;;0.35;0.32;;;;;;;;;;5381077;25;85755;-46
2024/04/19 05:11:49;;;;;;;0.77;0.23;;;;;;;;;;5383584;26;85836;-47
2024/04/19 05:14:14;;;;;;;1.70;0.23;;;;;;;;;;5380176;25;85838;-44
2024/04/19 05:16:40;;;;;;;0.60;0.30;;;;;;;;;;5384419;26;86737;-46
2024/04/19 05:19:05;;;;;;;0.50;0.30;;;;;;;;;;5381812;25;85830;-45
2024/04/19 05:21:31;;;;;;;0.43;0.33;;;;;;;;;;5377909;25;85843;-43
2024/04/19 05:23:56;;;;;;;2.10;0.50;;;;;;;;;;5384232;25;86539;-45
2024/04/19 05:26:21;;;;;;;5.00;0.70;;;;;;;;;;5391043;26;86476;-47
2024/04/19 05:28:46;;;;;;;0.37;0.23;;;;;;;;;;5379800;26;86399;-47
2024/04/19 05:31:12;;;;;;;0.47;0.27;;;;;;;;;;5378113;26;86363;-44
2024/04/19 05:33:37;;;;;;;0.70;0.30;;;;;;;;;;5388650;25;86853;-44
2024/04/19 05:36:02;;;;;;;5.00;0.77;;;;;;;;;;5382934;26;87222;-43
2024/04/19 05:38:28;;;;;;;0.60;0.30;;;;;;;;;;5379188;26;85962;-46
2024/04/19 05:40:53;;;;;;;0.47;0.20;;;;;;;;;;5373086;26;86034;-45
2024/04/19 05:43:18;;;;;;;1.07;0.40;;;;;;;;;;5384338;26;85882;-48
2024/04/19 05:45:43;;;;;;;0.13;0.10;;;;;;;;;;5380581;25;86157;-43
2024/04/19 05:48:09;;;;;;;0.70;0.40;;;;;;;;;;5391312;25;85695;-45
2024/04/19 05:50:34;;;;;;;0.20;0.20;;;;;;;;;;5377442;26;85951;-45
2024/04/19 05:52:59;;;;;;;0.97;0.30;;;;;;;;;;5379998;26;86996;-45
2024/04/19 05:55:24;;;;;;;1.10;0.50;;;;;;;;;;5378829;26;86712;-42
2024/04/19 05:57:50;;;;;;;0.30;0.30;;;;;;;;;;5384151;26;85178;-44
2024/04/19 06:00:15;;;;;;;0.60;0.20;;;;;;;;;;5374922;26;85631;-44
2024/04/19 06:02:40;;;;;;;1.47;0.40;;;;;;;;;;5365694;26;85803;-45
2024/04/19 06:05:06;;;;;;;8.65;0.65;;;;;;;;;;5372216;26;85762;-47
2024/04/19 06:07:31;;;;;;;0.50;0.50;;;;;;;;;;5385779;26;85828;-42
2024/04/19 06:09:56;;;;;;;4.03;0.97;;;;;;;;;;5376165;26;85752;-47
2024/04/19 06:12:21;;;;;;;1.90;0.43;;;;;;;;;;5377532;26;85763;-43
2024/04/19 06:14:47;;;;;;;4.30;0.40;;;;;;;;;;5378326;26;86462;-44
2024/04/19 06:17:12;;;;;;;0.30;0.30;;;;;;;;;;5383017;26;86321;-45
2024/04/19 06:19:37;;;;;;;1.23;0.60;;;;;;;;;;5374002;26;86874;-44
2024/04/19 06:22:02;;;;;;;1.80;0.40;;;;;;;;;;5372010;26;86082;-43
2024/04/19 06:24:28;;;;;;;0.50;0.40;;;;;;;;;;5376410;26;85594;-44
2024/04/19 06:26:53;;;;;;;1.17;0.60;;;;;;;;;;5379992;26;85209;-47
2024/04/19 06:29:18;;;;;;;0.35;0.35;;;;;;;;;;5385455;25;85718;-47
2024/04/19 06:31:44;;;;;;;1.13;0.67;;;;;;;;;;5365457;26;85362;-43
2024/04/19 06:34:09;;;;;;;0.73;0.30;;;;;;;;;;5379648;26;85262;-46
2024/04/19 06:36:34;;;;;;;0.37;0.30;;;;;;;;;;5383002;26;85760;-45
2024/04/19 06:39:00;;;;;;;0.60;0.40;;;;;;;;;;5375368;26;85371;-45
2024/04/19 06:41:25;;;;;;;6.72;0.28;;;;;;;;;;5374174;26;87718;-45
2024/04/19 06:43:50;;;;;;;0.13;0.13;;;;;;;;;;5388734;26;86043;-44
2024/04/19 06:46:17;;;;;;;0.50;0.40;;;;;;;;;;5380479;25;85459;-44
2024/04/19 06:48:42;;;;;;;0.90;0.60;;;;;;;;;;5384611;26;87325;-42
2024/04/19 06:51:07;;;;;;;0.70;0.40;;;;;;;;;;5377520;26;85148;-42
2024/04/19 06:53:32;;;;;;;0.07;0.07;;;;;;;;;;5384438;26;85632;-42
2024/04/19 06:55:58;;;;;;;0.80;0.30;;;;;;;;;;5373605;26;86167;-43
2024/04/19 06:58:23;;;;;;;0.68;0.40;;;;;;;;;;5383347;26;86290;-44
2024/04/19 07:00:49;;;;;;;0.50;0.40;;;;;;;;;;5378127;26;86119;-45
2024/04/19 07:03:15;;;;;;;0.70;0.50;;;;;;;;;;5391915;25;85299;-46
2024/04/19 07:05:40;;;;;;;0.20;0.20;;;;;;;;;;5371515;26;85585;-47
2024/04/19 07:08:05;;;;;;;2.00;0.30;;;;;;;;;;5366634;26;87568;-44
2024/04/19 07:10:30;;;;;;;1.77;0.30;;;;;;;;;;5431245;25;85459;-44
2024/04/19 07:12:56;;;;;;;0.20;0.20;;;;;;;;;;5378209;26;86018;-42
2024/04/19 07:15:21;;;;;;;0.80;0.30;;;;;;;;;;5373923;26;87823;-47
2024/04/19 07:17:50;;;;;;;1.30;0.40;;;;;;;;;;5377176;26;85170;-43
2024/04/19 07:20:15;;;;;;;0.55;0.35;;;;;;;;;;5382065;26;86646;-45
2024/04/19 07:22:40;;;;;;;1.00;0.53;;;;;;;;;;5385489;26;85952;-44
2024/04/19 07:25:06;;;;;;;1.10;0.63;;;;;;;;;;5385050;26;84434;-42
2024/04/19 07:27:31;;;;;;;0.50;0.40;;;;;;;;;;5389204;25;85813;-42
2024/04/19 07:29:56;;;;;;;2.30;0.50;;;;;;;;;;5372255;26;85645;-43
2024/04/19 07:32:21;;;;;;;1.48;0.60;;;;;;;;;;5377432;26;88015;-45
2024/04/19 07:34:47;;;;;;;2.38;0.73;;;;;;;;;;5385627;26;85507;-42
2024/04/19 07:37:12;;;;;;;3.30;0.90;;;;;;;;;;5383295;25;85215;-43
2024/04/19 07:39:37;;;;;;;4.20;3.60;;;;;;;;;;5373042;26;86885;-44
2024/04/19 07:42:03;;;;;;;9.43;6.33;;;;;;;;;;5373910;26;85858;-43
2024/04/19 07:44:28;;;;;;;22.53;20.23;;;;;;;;;;5377288;26;85638;-42
2024/04/19 07:46:53;;;;;;;20.27;18.27;;;;;;;;;;5372718;26;85315;-48
2024/04/19 07:49:18;;;;;;;15.37;13.73;;;;;;;;;;5387606;25;85354;-46
2024/04/19 07:51:43;;;;;;;13.23;11.83;;;;;;;;;;5378730;26;85733;-44
2024/04/19 07:54:09;;;;;;;13.75;11.05;;;;;;;;;;5386371;26;85563;-43
2024/04/19 07:56:34;;;;;;;11.10;9.90;;;;;;;;;;5390751;26;86222;-45
2024/04/19 07:58:59;;;;;;;10.67;9.40;;;;;;;;;;5388209;26;86108;-42
2024/04/19 08:01:24;;;;;;;8.63;7.73;;;;;;;;;;5384001;26;85642;-45
2024/04/19 08:03:50;;;;;;;8.00;6.70;;;;;;;;;;5388848;26;85212;-44
2024/04/19 08:06:15;;;;;;;7.90;5.83;;;;;;;;;;5372879;26;86226;-43
2024/04/19 08:08:41;;;;;;;6.33;5.33;;;;;;;;;;5387729;26;85626;-44
2024/04/19 08:11:06;;;;;;;5.10;4.60;;;;;;;;;;5375358;26;85679;-44
2024/04/19 08:13:31;;;;;;;5.43;4.93;;;;;;;;;;5384552;26;85112;-45
2024/04/19 08:15:57;;;;;;;5.17;4.17;;;;;;;;;;5376869;26;85462;-48
2024/04/19 08:18:22;;;;;;;4.37;3.83;;;;;;;;;;5389927;26;85468;-44
2024/04/19 08:20:47;;;;;;;3.87;3.53;;;;;;;;;;5370423;26;86855;-44
2024/04/19 08:23:12;;;;;;;6.50;3.23;;;;;;;;;;5382217;26;86155;-42
2024/04/19 08:25:38;;;;;;;3.20;2.90;;;;;;;;;;5376783;26;86688;-43
2024/04/19 08:28:03;;;;;;;2.93;2.70;;;;;;;;;;5379117;26;85720;-43
2024/04/19 08:30:29;;;;;;;2.37;2.17;;;;;;;;;;5384009;26;85581;-44
2024/04/19 08:32:54;;;;;;;4.93;2.20;;;;;;;;;;5388395;26;86419;-46
2024/04/19 08:35:19;;;;;;;2.10;1.90;;;;;;;;;;5383687;26;86632;-45
2024/04/19 08:37:44;;;;;;;2.27;1.90;;;;;;;;;;5381473;26;85881;-44
2024/04/19 08:40:12;;;;;;;2.13;1.80;;;;;;;;;;5384730;26;85778;-43
2024/04/19 08:42:37;;;;;;;1.77;1.33;;;;;;;;;;5370038;25;86652;-46
2024/04/19 08:45:05;;;;;;;1.10;1.00;;;;;;;;;;5379373;26;88157;-44
2024/04/19 08:47:34;;;;;;;1.37;1.23;;;;;;;;;;5382181;26;85164;-44
2024/04/19 08:50:01;;;;;;;1.45;1.27;;;;;;;;;;5385257;25;86253;-46
2024/04/19 08:52:26;;;;;;;1.65;1.52;;;;;;;;;;5384521;25;85344;-47
2024/04/19 08:54:53;;;;;;;1.50;1.07;;;;;;;;;;5385970;26;86124;-46
2024/04/19 08:57:19;;;;;;;1.52;1.02;;;;;;;;;;5379070;26;87083;-43
2024/04/19 08:59:45;;;;;;;1.70;0.68;;;;;;;;;;5380629;26;86337;-43
2024/04/19 09:02:11;;;;;;;0.98;0.82;;;;;;;;;;5378383;26;84610;-44
2024/04/19 09:04:36;;;;;;;1.20;0.70;;;;;;;;;;5380628;26;86324;-43
2024/04/19 09:07:01;;;;;;;1.60;0.80;;;;;;;;;;5383613;25;85152;-46
2024/04/19 09:09:27;;;;;;;2.40;0.60;;;;;;;;;;5382274;25;86911;-43
2024/04/19 09:11:54;;;;;;;1.07;0.67;;;;;;;;;;5381179;26;87244;-43
2024/04/19 09:14:19;;;;;;;0.73;0.63;;;;;;;;;;5383080;25;85089;-42
2024/04/19 09:16:47;;;;;;;1.00;0.60;;;;;;;;;;5436336;25;87755;-42
2024/04/19 09:19:12;;;;;;;0.60;0.60;;;;;;;;;;5383488;26;86187;-42
2024/04/19 09:21:38;;;;;;;1.73;0.60;;;;;;;;;;5381503;26;85520;-45
2024/04/19 09:24:05;;;;;;;0.20;0.20;;;;;;;;;;5391413;26;88041;-48
2024/04/19 09:26:31;;;;;;;3.95;0.45;;;;;;;;;;5376289;26;85318;-46
2024/04/19 09:28:57;;;;;;;1.20;0.50;;;;;;;;;;5384101;26;85929;-46
2024/04/19 09:31:22;;;;;;;0.93;0.52;;;;;;;;;;5375871;26;85949;-45
2024/04/19 09:33:51;;;;;;;0.90;0.50;;;;;;;;;;5377478;26;86563;-43
2024/04/19 09:36:20;;;;;;;1.30;0.80;;;;;;;;;;5388454;26;86659;-41
2024/04/19 09:38:45;;;;;;;0.40;0.40;;;;;;;;;;5385497;25;85110;-43
2024/04/19 09:41:14;;;;;;;0.40;0.20;;;;;;;;;;5378297;26;85197;-45
2024/04/19 09:43:42;;;;;;;1.20;0.22;;;;;;;;;;5375012;26;86778;-44
2024/04/19 09:46:09;;;;;;;0.57;0.52;;;;;;;;;;5382189;26;85563;-41
2024/04/19 09:48:38;;;;;;;1.48;0.40;;;;;;;;;;5375479;26;85434;-41
2024/04/19 09:51:04;;;;;;;0.50;0.40;;;;;;;;;;5386507;25;84841;-43
2024/04/19 09:53:34;;;;;;;0.82;0.43;;;;;;;;;;5375156;26;85233;-43
2024/04/19 09:56:24;;;;;;;8.90;0.52;;;;;;;;;;5382813;26;86771;-45
2024/04/19 09:58:50;;;;;;;0.70;0.40;;;;;;;;;;5375815;26;86828;-42
2024/04/19 10:01:15;;;;;;;1.27;0.47;;;;;;;;;;5379214;25;86116;-41
2024/04/19 10:03:40;;;;;;;1.50;0.52;;;;;;;;;;5376475;26;86647;-43
2024/04/19 10:06:07;;;;;;;3.05;0.47;;;;;;;;;;5392607;26;85917;-42
2024/04/19 10:08:33;;;;;;;0.35;0.30;;;;;;;;;;5369736;26;86193;-43
2024/04/19 10:10:58;;;;;;;0.47;0.27;;;;;;;;;;5386555;25;87129;-42
2024/04/19 10:13:30;;;;;;;0.10;0.10;;;;;;;;;;5374730;26;85674;-44
2024/04/19 10:15:56;;;;;;;2.10;0.20;;;;;;;;;;5377821;26;84541;-41
2024/04/19 10:18:21;;;;;;;0.60;0.28;;;;;;;;;;5385887;26;87516;-42
2024/04/19 10:20:47;;;;;;;0.50;0.27;;;;;;;;;;5373580;26;85246;-41
2024/04/19 10:23:14;;;;;;;0.73;0.27;;;;;;;;;;5384886;26;86358;-41
2024/04/19 10:25:39;;;;;;;0.53;0.20;;;;;;;;;;5378367;26;87087;-44
2024/04/19 10:28:11;;;;;;;0.67;0.40;;;;;;;;;;5388237;26;85652;-42
2024/04/19 10:30:37;;;;;;;0.20;0.20;;;;;;;;;;5380727;26;85188;-41
2024/04/19 10:33:02;;;;;;;2.30;0.55;;;;;;;;;;5383514;26;85312;-41
2024/04/19 10:35:28;;;;;;;0.30;0.30;;;;;;;;;;5373822;26;86675;-46
2024/04/19 10:37:53;;;;;;;0.40;0.28;;;;;;;;;;5385997;25;85726;-42
2024/04/19 10:40:19;;;;;;;2.20;0.50;;;;;;;;;;5376222;26;85375;-42
2024/04/19 10:42:45;;;;;;;1.63;0.50;;;;;;;;;;5369323;26;85148;-43
2024/04/19 10:45:11;;;;;;;0.40;0.30;;;;;;;;;;5384259;26;86629;-41
2024/04/19 10:47:36;;;;;;;0.40;0.30;;;;;;;;;;5376123;25;86051;-41
2024/04/19 10:50:02;;;;;;;0.20;0.20;;;;;;;;;;5380879;25;86677;-42
2024/04/19 10:52:27;;;;;;;1.40;0.50;;;;;;;;;;5382535;26;85196;-43
2024/04/19 10:54:52;;;;;;;0.17;0.17;;;;;;;;;;5377252;26;86003;-44
2024/04/19 10:57:17;;;;;;;0.20;0.20;;;;;;;;;;5386422;26;86775;-40
2024/04/19 10:59:43;;;;;;;2.40;0.20;;;;;;;;;;5380082;25;85736;-42
2024/04/19 11:02:09;;;;;;;3.20;0.70;;;;;;;;;;5374584;26;87031;-41
2024/04/19 11:04:35;;;;;;;7.00;2.03;;;;;;;;;;5376802;26;85580;-42
2024/04/19 11:07:01;;;;;;;8.45;2.75;;;;;;;;;;5374384;26;85451;-41
2024/04/19 11:09:26;;;;;;;3.75;1.17;;;;;;;;;;5379842;25;86880;-42
2024/04/19 11:11:51;;;;;;;3.65;1.65;;;;;;;;;;5373923;26;86340;-41
2024/04/19 11:14:19;;;;;;;5.22;1.35;;;;;;;;;;5385753;26;85707;-41
2024/04/19 11:16:44;;;;;;;3.25;0.95;;;;;;;;;;5380966;26;86539;-41
2024/04/19 11:19:09;;;;;;;1.30;0.90;;;;;;;;;;5381635;25;88131;-51
2024/04/19 11:21:35;;;;;;;2.60;1.10;;;;;;;;;;5375558;25;85595;-46
2024/04/19 11:24:00;;;;;;;3.70;0.90;;;;;;;;;;5388351;26;87100;-43
2024/04/19 11:26:25;;;;;;;2.10;0.60;;;;;;;;;;5378105;25;85324;-52
2024/04/19 11:28:51;;;;;;;0.83;0.33;;;;;;;;;;5376864;26;85069;-40
2024/04/19 11:31:16;;;;;;;0.88;0.40;;;;;;;;;;5378504;26;85579;-47
2024/04/19 11:33:41;;;;;;;2.60;0.50;;;;;;;;;;5440597;25;86203;-44
2024/04/19 11:36:13;;;;;;;2.63;0.40;;;;;;;;;;5384947;26;87983;-42
2024/04/19 11:38:38;;;;;;;0.43;0.43;;;;;;;;;;5377777;25;85323;-42
2024/04/19 11:41:03;;;;;;;0.70;0.35;;;;;;;;;;5374942;26;86863;-41
2024/04/19 11:43:30;;;;;;;0.97;0.43;;;;;;;;;;5379149;26;85289;-42
2024/04/19 11:45:56;;;;;;;0.17;0.10;;;;;;;;;;5380727;26;85629;-45
2024/04/19 11:48:22;;;;;;;0.20;0.20;;;;;;;;;;5377775;25;87125;-44
2024/04/19 11:50:47;;;;;;;1.45;0.30;;;;;;;;;;5380825;26;85123;-46
2024/04/19 11:53:12;;;;;;;5.70;0.60;;;;;;;;;;5396411;26;84842;-43
2024/04/19 11:55:38;;;;;;;1.70;0.40;;;;;;;;;;5381773;26;85887;-42
2024/04/19 11:58:03;;;;;;;3.53;0.40;;;;;;;;;;5385161;26;86939;-46
2024/04/19 12:00:28;;;;;;;1.57;0.60;;;;;;;;;;5374327;26;87673;-44
2024/04/19 12:02:54;;;;;;;0.23;0.23;;;;;;;;;;5372730;26;86259;-44
2024/04/19 12:05:19;;;;;;;1.90;0.50;;;;;;;;;;5385796;26;85094;-41
2024/04/19 12:07:44;;;;;;;0.23;0.23;;;;;;;;;;5431741;25;85656;-46
2024/04/19 12:10:10;;;;;;;1.10;0.30;;;;;;;;;;5385112;25;85565;-43
2024/04/19 12:12:35;;;;;;;0.60;0.30;;;;;;;;;;5382527;26;86836;-44
2024/04/19 12:15:00;;;;;;;2.20;0.10;;;;;;;;;;5376036;26;85491;-48
2024/04/19 12:17:25;;;;;;;0.38;0.20;;;;;;;;;;5373502;26;84354;-45
2024/04/19 12:19:51;;;;;;;1.50;0.30;;;;;;;;;;5378838;25;86266;-43
2024/04/19 12:22:16;;;;;;;2.00;0.67;;;;;;;;;;5376985;26;87042;-45
2024/04/19 12:24:42;;;;;;;0.50;0.28;;;;;;;;;;5378031;26;86066;-41
2024/04/19 12:27:07;;;;;;;0.13;0.13;;;;;;;;;;5373179;26;85566;-44
2024/04/19 12:29:33;;;;;;;0.50;0.40;;;;;;;;;;5385398;26;86742;-43
2024/04/19 12:32:04;;;;;;;0.93;0.20;;;;;;;;;;5373715;26;85101;-42
2024/04/19 12:34:29;;;;;;;0.63;0.20;;;;;;;;;;5383373;26;85777;-42
2024/04/19 12:36:59;;;;;;;0.10;0.10;;;;;;;;;;5382012;26;86406;-44
2024/04/19 12:39:24;;;;;;;3.10;0.70;;;;;;;;;;5375969;25;86112;-43
2024/04/19 12:41:49;;;;;;;4.63;0.70;;;;;;;;;;5344935;26;85191;-45
2024/04/19 12:44:15;;;;;;;1.13;0.77;;;;;;;;;;5373592;26;87504;-46
2024/04/19 12:46:40;;;;;;;1.20;0.60;;;;;;;;;;5383423;26;85635;-44
2024/04/19 12:49:06;;;;;;;11.03;4.20;;;;;;;;;;5380045;25;87762;-47
2024/04/19 12:51:32;;;;;;;2.90;1.95;;;;;;;;;;5381334;25;85948;-43
2024/04/19 12:53:57;;;;;;;3.33;1.93;;;;;;;;;;5376627;26;86765;-44
2024/04/19 12:56:23;;;;;;;1.50;1.30;;;;;;;;;;5372551;26;87120;-41
2024/04/19 12:58:52;;;;;;;4.60;1.37;;;;;;;;;;5377220;26;85086;-46
2024/04/19 13:01:18;;;;;;;2.00;1.08;;;;;;;;;;5367484;26;85448;-46
2024/04/19 13:03:43;;;;;;;2.78;1.50;;;;;;;;;;5381153;26;85273;-44
2024/04/19 13:06:08;;;;;;;3.90;2.33;;;;;;;;;;5379213;26;84535;-46
2024/04/19 13:08:33;;;;;;;6.50;3.80;;;;;;;;;;5377327;26;85943;-42
2024/04/19 13:10:59;;;;;;;5.90;3.30;;;;;;;;;;5379054;25;85627;-43
2024/04/19 13:13:24;;;;;;;6.53;3.35;;;;;;;;;;5375088;26;86131;-42
2024/04/19 13:15:49;;;;;;;8.13;4.17;;;;;;;;;;5392469;26;85776;-44
2024/04/19 13:18:14;;;;;;;7.50;3.10;;;;;;;;;;5382686;25;85425;-46
2024/04/19 13:20:40;;;;;;;6.60;2.87;;;;;;;;;;5390293;25;87215;-43
2024/04/19 13:23:05;;;;;;;4.43;2.43;;;;;;;;;;5371381;26;86146;-47
2024/04/19 13:25:30;;;;;;;8.93;2.93;;;;;;;;;;5439433;25;87706;-45
2024/04/19 13:27:55;;;;;;;4.50;2.25;;;;;;;;;;5376302;26;88441;-47
2024/04/19 13:30:21;;;;;;;5.33;2.80;;;;;;;;;;5376767;26;85034;-44
2024/04/19 13:32:46;;;;;;;4.93;2.50;;;;;;;;;;5376215;26;86319;-47
2024/04/19 13:35:13;;;;;;;4.00;2.23;;;;;;;;;;5376704;25;85268;-44
2024/04/19 13:37:38;;;;;;;2.65;1.83;;;;;;;;;;5377290;26;86168;-45
2024/04/19 13:40:04;;;;;;;3.33;1.95;;;;;;;;;;5376854;26;86435;-44
2024/04/19 13:42:29;;;;;;;3.58;2.20;;;;;;;;;;5375026;26;85917;-44
2024/04/19 13:44:54;;;;;;;3.23;1.60;;;;;;;;;;5385669;25;86295;-42
2024/04/19 13:47:19;;;;;;;6.43;1.67;;;;;;;;;;5381065;26;86120;-43
2024/04/19 13:49:45;;;;;;;2.10;1.10;;;;;;;;;;5375381;26;85511;-44
2024/04/19 13:52:10;;;;;;;3.93;1.73;;;;;;;;;;5385108;26;85852;-44
2024/04/19 13:54:35;;;;;;;2.87;1.10;;;;;;;;;;5376729;26;86172;-44
2024/04/19 13:57:01;;;;;;;2.43;0.90;;;;;;;;;;5387332;26;85484;-43
2024/04/19 13:59:26;;;;;;;3.00;1.10;;;;;;;;;;5375279;26;87237;-47
2024/04/19 14:01:52;;;;;;;2.03;1.00;;;;;;;;;;5373935;26;87392;-43
2024/04/19 14:04:18;;;;;;;5.40;1.08;;;;;;;;;;5379675;26;85812;-45
2024/04/19 14:06:44;;;;;;;3.60;1.10;;;;;;;;;;5379891;26;86539;-45
2024/04/19 14:09:11;;;;;;;1.30;0.43;;;;;;;;;;5387057;26;85140;-43
2024/04/19 14:11:39;;;;;;;2.15;0.82;;;;;;;;;;5375789;26;86477;-44
2024/04/19 14:14:05;;;;;;;1.45;0.77;;;;;;;;;;5375719;26;85651;-44
2024/04/19 14:16:30;;;;;;;0.87;0.50;;;;;;;;;;5373488;26;85199;-44
2024/04/19 14:18:55;;;;;;;0.70;0.50;;;;;;;;;;5375028;26;86852;-45
2024/04/19 14:21:22;;;;;;;1.70;0.50;;;;;;;;;;5378186;26;88479;-43
2024/04/19 14:23:50;;;;;;;6.00;0.90;;;;;;;;;;5383589;26;85130;-46
2024/04/19 14:26:17;;;;;;;0.30;0.30;;;;;;;;;;5392523;26;86646;-51
2024/04/19 14:28:43;;;;;;;0.30;0.20;;;;;;;;;;5386112;26;85781;-49
2024/04/19 14:31:08;;;;;;;1.57;0.50;;;;;;;;;;5376457;25;86470;-45
2024/04/19 14:33:39;;;;;;;6.17;0.80;;;;;;;;;;5383970;25;87229;-43
2024/04/19 14:36:05;;;;;;;1.20;0.43;;;;;;;;;;5391771;25;85239;-48
2024/04/19 14:38:32;;;;;;;1.63;0.37;;;;;;;;;;5383965;26;86586;-43